createdAt,value
2024-01-11T00:00:14.635Z,25.95
2024-01-11T00:01:14.747Z,25.98
2024-01-11T00:02:14.790Z,25.99
2024-01-11T00:03:14.667Z,26.01
2024-01-11T00:04:14.525Z,26.03
2024-01-11T00:05:14.668Z,26.06
2024-01-11T00:06:14.578Z,26.06
2024-01-11T00:07:14.826Z,26.04
2024-01-11T00:08:15.458Z,26.04
2024-01-11T00:09:14.524Z,26.01
2024-01-11T00:10:14.405Z,25.93
2024-01-11T00:11:17.507Z,25.86
2024-01-11T00:12:14.404Z,25.78
2024-01-11T00:13:14.788Z,25.73
2024-01-11T00:14:14.439Z,25.70
2024-01-11T00:15:14.605Z,25.67
2024-01-11T00:16:14.353Z,25.63
2024-01-11T00:17:14.368Z,25.62
2024-01-11T00:18:14.489Z,25.55
2024-01-11T00:19:14.851Z,25.43
2024-01-11T00:20:14.490Z,25.29
2024-01-11T00:21:14.586Z,25.16
2024-01-11T00:22:14.376Z,25.12
2024-01-11T00:23:14.350Z,25.04
2024-01-11T00:24:14.498Z,24.89
2024-01-11T00:25:14.826Z,24.82
2024-01-11T00:26:14.605Z,24.63
2024-01-11T00:27:14.320Z,24.59
2024-01-11T00:28:14.238Z,24.50
2024-01-11T00:29:14.254Z,24.48
2024-01-11T00:30:14.237Z,24.46
2024-01-11T00:31:14.454Z,24.46
2024-01-11T00:32:14.273Z,24.51
2024-01-11T00:33:14.292Z,24.53
2024-01-11T00:34:14.276Z,24.47
2024-01-11T00:35:14.194Z,24.43
2024-01-11T00:36:14.187Z,24.38
2024-01-11T00:37:14.288Z,24.44
2024-01-11T00:38:14.339Z,24.46
2024-01-11T00:39:14.105Z,24.43
2024-01-11T00:40:14.198Z,24.40
2024-01-11T00:41:14.217Z,24.37
2024-01-11T00:42:14.121Z,24.28
2024-01-11T00:43:14.222Z,24.14
2024-01-11T00:44:14.153Z,24.13
2024-01-11T00:45:14.127Z,24.09
2024-01-11T00:46:14.032Z,24.07
2024-01-11T00:47:14.053Z,24.04
2024-01-11T00:48:14.106Z,24.03
2024-01-11T00:49:14.232Z,23.99
2024-01-11T00:50:14.104Z,23.96
2024-01-11T00:51:14.094Z,23.92
2024-01-11T00:52:14.287Z,23.94
2024-01-11T00:53:14.001Z,23.89
2024-01-11T00:54:14.182Z,23.86
2024-01-11T00:55:14.467Z,23.85
2024-01-11T00:56:14.116Z,23.89
2024-01-11T00:57:14.002Z,23.89
2024-01-11T00:58:14.010Z,23.91
2024-01-11T00:59:13.961Z,23.95
2024-01-11T01:00:14.011Z,24.00
2024-01-11T01:01:14.298Z,24.03
2024-01-11T01:02:14.000Z,24.09
2024-01-11T01:03:14.015Z,24.14
2024-01-11T01:04:14.018Z,24.18
2024-01-11T01:05:14.022Z,24.24
2024-01-11T01:06:14.027Z,24.25
2024-01-11T01:07:14.069Z,24.28
2024-01-11T01:08:13.889Z,24.28
2024-01-11T01:09:13.840Z,24.24
2024-01-11T01:10:13.773Z,24.22
2024-01-11T01:11:13.813Z,24.25
2024-01-11T01:12:13.786Z,24.26
2024-01-11T01:13:14.078Z,24.31
2024-01-11T01:14:13.957Z,24.36
2024-01-11T01:15:13.839Z,24.38
2024-01-11T01:16:13.768Z,24.40
2024-01-11T01:17:16.922Z,24.40
2024-01-11T01:18:13.918Z,24.41
2024-01-11T01:19:13.898Z,24.41
2024-01-11T01:20:13.802Z,24.46
2024-01-11T01:21:13.749Z,24.48
2024-01-11T01:22:13.700Z,24.48
2024-01-11T01:23:13.720Z,24.50
2024-01-11T01:24:13.728Z,24.50
2024-01-11T01:25:13.947Z,24.53
2024-01-11T01:26:13.717Z,24.55
2024-01-11T01:27:13.906Z,24.51
2024-01-11T01:28:13.592Z,24.55
2024-01-11T01:29:13.656Z,24.51
2024-01-11T01:30:13.721Z,24.48
2024-01-11T01:31:13.829Z,24.50
2024-01-11T01:32:13.654Z,24.51
2024-01-11T01:33:13.799Z,24.55
2024-01-11T01:34:13.697Z,24.56
2024-01-11T01:35:13.615Z,24.56
2024-01-11T01:36:13.569Z,24.59
2024-01-11T01:37:13.768Z,24.58
2024-01-11T01:38:13.569Z,24.61
2024-01-11T01:39:13.569Z,24.59
2024-01-11T01:40:13.595Z,24.59
2024-01-11T01:41:13.521Z,24.59
2024-01-11T01:42:13.540Z,24.59
2024-01-11T01:43:13.589Z,24.61
2024-01-11T01:44:13.473Z,24.59
2024-01-11T01:45:14.332Z,24.61
2024-01-11T01:46:13.415Z,24.63
2024-01-11T01:47:13.642Z,24.65
2024-01-11T01:48:13.523Z,24.68
2024-01-11T01:49:13.757Z,24.69
2024-01-11T01:50:13.644Z,24.74
2024-01-11T01:51:13.392Z,24.75
2024-01-11T01:52:13.352Z,24.77
2024-01-11T01:53:13.417Z,24.77
2024-01-11T01:54:13.320Z,24.74
2024-01-11T01:55:13.479Z,24.71
2024-01-11T01:56:13.340Z,24.63
2024-01-11T01:57:13.341Z,24.62
2024-01-11T01:58:13.281Z,24.59
2024-01-11T01:59:13.454Z,24.58
2024-01-11T02:00:13.250Z,24.51
2024-01-11T02:01:13.550Z,24.50
2024-01-11T02:02:13.277Z,24.47
2024-01-11T02:03:13.301Z,24.44
2024-01-11T02:04:13.276Z,24.43
2024-01-11T02:05:13.451Z,24.43
2024-01-11T02:06:13.611Z,24.43
2024-01-11T02:07:13.512Z,24.41
2024-01-11T02:08:13.243Z,24.40
2024-01-11T02:09:13.181Z,24.37
2024-01-11T02:10:13.228Z,24.28
2024-01-11T02:11:13.182Z,24.25
2024-01-11T02:12:13.100Z,24.25
2024-01-11T02:13:13.387Z,24.24
2024-01-11T02:14:13.211Z,24.22
2024-01-11T02:15:13.068Z,24.18
2024-01-11T02:16:13.050Z,24.13
2024-01-11T02:17:13.094Z,24.11
2024-01-11T02:18:13.138Z,24.11
2024-01-11T02:19:13.513Z,24.10
2024-01-11T02:20:13.177Z,24.11
2024-01-11T02:21:13.095Z,24.13
2024-01-11T02:22:13.801Z,24.18
2024-01-11T02:23:13.144Z,24.19
2024-01-11T02:24:13.144Z,24.24
2024-01-11T02:25:13.336Z,24.26
2024-01-11T02:26:13.049Z,24.31
2024-01-11T02:27:13.096Z,24.37
2024-01-11T02:28:13.046Z,24.38
2024-01-11T02:29:12.976Z,24.41
2024-01-11T02:30:12.965Z,24.46
2024-01-11T02:31:13.150Z,24.44
2024-01-11T02:32:13.094Z,24.44
2024-01-11T02:33:13.052Z,24.44
2024-01-11T02:34:13.081Z,24.47
2024-01-11T02:35:12.892Z,24.48
2024-01-11T02:36:13.063Z,24.48
2024-01-11T02:37:13.093Z,24.47
2024-01-11T02:38:12.940Z,24.50
2024-01-11T02:39:12.923Z,24.53
2024-01-11T02:40:12.927Z,24.53
2024-01-11T02:41:12.917Z,24.55
2024-01-11T02:42:12.836Z,24.50
2024-01-11T02:43:12.923Z,24.50
2024-01-11T02:44:12.853Z,24.50
2024-01-11T02:45:12.843Z,24.48
2024-01-11T02:46:12.827Z,24.48
2024-01-11T02:47:12.832Z,24.47
2024-01-11T02:48:12.948Z,24.44
2024-01-11T02:49:12.869Z,24.44
2024-01-11T02:50:13.089Z,24.47
2024-01-11T02:51:12.759Z,24.47
2024-01-11T02:52:12.758Z,24.48
2024-01-11T02:53:12.829Z,24.51
2024-01-11T02:54:12.708Z,24.48
2024-01-11T02:55:12.982Z,24.44
2024-01-11T02:56:12.737Z,24.43
2024-01-11T02:57:12.716Z,24.38
2024-01-11T02:58:12.713Z,24.38
2024-01-11T02:59:12.749Z,24.37
2024-01-11T03:00:12.640Z,24.31
2024-01-11T03:01:12.801Z,24.26
2024-01-11T03:02:12.653Z,24.22
2024-01-11T03:03:12.863Z,24.19
2024-01-11T03:04:12.615Z,24.14
2024-01-11T03:05:12.686Z,24.16
2024-01-11T03:06:12.601Z,24.13
2024-01-11T03:07:12.699Z,24.14
2024-01-11T03:08:12.654Z,24.14
2024-01-11T03:09:12.609Z,24.13
2024-01-11T03:10:12.499Z,24.14
2024-01-11T03:11:12.542Z,24.14
2024-01-11T03:12:12.494Z,24.16
2024-01-11T03:13:12.603Z,24.16
2024-01-11T03:14:12.532Z,24.14
2024-01-11T03:15:12.511Z,24.09
2024-01-11T03:16:12.429Z,24.07
2024-01-11T03:17:12.459Z,24.07
2024-01-11T03:18:12.594Z,24.10
2024-01-11T03:19:12.692Z,24.11
2024-01-11T03:20:12.489Z,24.14
2024-01-11T03:21:12.407Z,24.14
2024-01-11T03:22:12.364Z,24.16
2024-01-11T03:23:12.398Z,24.16
2024-01-11T03:24:12.368Z,24.18
2024-01-11T03:25:12.386Z,24.16
2024-01-11T03:26:12.533Z,24.18
2024-01-11T03:27:12.323Z,24.18
2024-01-11T03:28:12.321Z,24.18
2024-01-11T03:29:12.366Z,24.18
2024-01-11T03:30:12.353Z,24.16
2024-01-11T03:31:12.510Z,24.14
2024-01-11T03:32:12.358Z,24.14
2024-01-11T03:34:12.474Z,24.10
2024-01-11T03:35:12.377Z,24.07
2024-01-11T03:36:12.311Z,24.07
2024-01-11T03:37:12.274Z,24.07
2024-01-11T03:38:12.419Z,24.06
2024-01-11T03:39:12.279Z,24.07
2024-01-11T03:40:12.189Z,24.09
2024-01-11T03:41:12.415Z,24.11
2024-01-11T03:42:12.349Z,24.14
2024-01-11T03:43:12.315Z,24.14
2024-01-11T03:44:12.167Z,24.16
2024-01-11T03:45:12.268Z,24.18
2024-01-11T03:46:12.119Z,24.14
2024-01-11T03:47:12.150Z,24.13
2024-01-11T03:48:12.188Z,24.10
2024-01-11T03:49:12.175Z,24.11
2024-01-11T03:50:12.283Z,24.11
2024-01-11T03:51:12.156Z,24.14
2024-01-11T03:52:12.666Z,24.11
2024-01-11T03:53:12.071Z,24.11
2024-01-11T03:54:12.143Z,24.11
2024-01-11T03:55:12.073Z,24.06
2024-01-11T03:56:12.107Z,24.04
2024-01-11T03:57:12.091Z,24.04
2024-01-11T03:58:11.995Z,24.04
2024-01-11T03:59:12.123Z,24.06
2024-01-11T04:00:12.050Z,24.09
2024-01-11T04:01:12.079Z,24.04
2024-01-11T04:02:12.066Z,24.03
2024-01-11T04:03:12.081Z,24.01
2024-01-11T04:04:11.964Z,23.99
2024-01-11T04:05:12.103Z,24.00
2024-01-11T04:06:11.895Z,24.00
2024-01-11T04:07:11.839Z,23.99
2024-01-11T04:08:11.880Z,23.99
2024-01-11T04:09:11.870Z,24.00
2024-01-11T04:10:11.834Z,23.99
2024-01-11T04:11:11.993Z,23.99
2024-01-11T04:12:11.782Z,23.99
2024-01-11T04:13:11.796Z,24.00
2024-01-11T04:14:11.821Z,24.00
2024-01-11T04:15:11.725Z,23.99
2024-01-11T04:16:11.729Z,23.96
2024-01-11T04:17:11.800Z,24.01
2024-01-11T04:18:11.816Z,24.04
2024-01-11T04:19:11.890Z,24.06
2024-01-11T04:20:11.747Z,24.06
2024-01-11T04:21:11.863Z,24.09
2024-01-11T04:22:11.679Z,24.10
2024-01-11T04:23:11.717Z,24.14
2024-01-11T04:24:11.769Z,24.16
2024-01-11T04:25:11.788Z,24.21
2024-01-11T04:26:11.722Z,24.24
2024-01-11T04:27:11.604Z,24.24
2024-01-11T04:28:11.621Z,24.25
2024-01-11T04:29:11.623Z,24.25
2024-01-11T04:30:11.636Z,24.25
2024-01-11T04:31:11.631Z,24.26
2024-01-11T04:32:11.663Z,24.26
2024-01-11T04:33:11.656Z,24.26
2024-01-11T04:34:11.615Z,24.28
2024-01-11T04:35:11.693Z,24.28
2024-01-11T04:36:11.564Z,24.28
2024-01-11T04:37:11.572Z,24.26
2024-01-11T04:38:11.594Z,24.29
2024-01-11T04:39:11.519Z,24.29
2024-01-11T04:40:11.570Z,24.29
2024-01-11T04:41:11.511Z,24.31
2024-01-11T04:42:11.478Z,24.32
2024-01-11T04:43:11.496Z,24.31
2024-01-11T04:44:11.504Z,24.31
2024-01-11T04:45:11.417Z,24.32
2024-01-11T04:46:11.421Z,24.32
2024-01-11T04:47:11.449Z,24.32
2024-01-11T04:48:11.495Z,24.36
2024-01-11T04:49:11.556Z,24.34
2024-01-11T04:50:11.466Z,24.34
2024-01-11T04:51:11.350Z,24.32
2024-01-11T04:52:11.435Z,24.31
2024-01-11T04:53:11.372Z,24.29
2024-01-11T04:54:11.351Z,24.28
2024-01-11T04:55:11.361Z,24.26
2024-01-11T04:56:11.389Z,24.26
2024-01-11T04:57:11.332Z,24.26
2024-01-11T04:58:11.376Z,24.28
2024-01-11T04:59:11.321Z,24.28
2024-01-11T05:00:11.296Z,24.26
2024-01-11T05:01:11.553Z,24.26
2024-01-11T05:02:11.309Z,24.28
2024-01-11T05:03:11.293Z,24.26
2024-01-11T05:04:11.310Z,24.28
2024-01-11T05:05:11.212Z,24.26
2024-01-11T05:06:11.219Z,24.28
2024-01-11T05:07:11.251Z,24.28
2024-01-11T05:08:11.233Z,24.26
2024-01-11T05:09:11.204Z,24.25
2024-01-11T05:10:11.239Z,24.24
2024-01-11T05:11:11.209Z,24.19
2024-01-11T05:12:11.167Z,24.18
2024-01-11T05:13:11.692Z,24.14
2024-01-11T05:14:11.266Z,24.10
2024-01-11T05:15:11.161Z,24.09
2024-01-11T05:16:11.173Z,24.03
2024-01-11T05:17:11.151Z,24.00
2024-01-11T05:18:11.266Z,23.99
2024-01-11T05:19:11.216Z,23.99
2024-01-11T05:20:11.126Z,24.01
2024-01-11T05:21:11.036Z,24.03
2024-01-11T05:22:11.099Z,24.06
2024-01-11T05:23:11.032Z,24.07
2024-01-11T05:24:12.123Z,24.09
2024-01-11T05:25:11.103Z,24.07
2024-01-11T05:26:11.081Z,24.07
2024-01-11T05:27:11.045Z,24.06
2024-01-11T05:28:11.027Z,24.06
2024-01-11T05:29:10.980Z,24.04
2024-01-11T05:30:11.179Z,24.06
2024-01-11T05:31:11.272Z,24.06
2024-01-11T05:32:11.161Z,24.07
2024-01-11T05:33:11.309Z,24.07
2024-01-11T05:34:11.060Z,24.10
2024-01-11T05:35:11.030Z,24.11
2024-01-11T05:36:10.894Z,24.13
2024-01-11T05:37:10.897Z,24.13
2024-01-11T05:38:11.547Z,24.11
2024-01-11T05:39:10.928Z,24.11
2024-01-11T05:40:10.937Z,24.09
2024-01-11T05:41:10.996Z,24.09
2024-01-11T05:42:10.848Z,24.06
2024-01-11T05:43:10.845Z,24.04
2024-01-11T05:44:10.858Z,24.04
2024-01-11T05:45:10.857Z,24.04
2024-01-11T05:46:10.852Z,24.06
2024-01-11T05:47:10.911Z,24.04
2024-01-11T05:48:10.900Z,24.04
2024-01-11T05:49:10.795Z,24.03
2024-01-11T05:50:10.901Z,24.01
2024-01-11T05:51:10.843Z,24.00
2024-01-11T05:52:10.815Z,23.99
2024-01-11T05:53:10.834Z,23.95
2024-01-11T05:54:10.810Z,23.95
2024-01-11T05:55:10.744Z,23.95
2024-01-11T05:56:11.366Z,23.95
2024-01-11T05:57:10.760Z,23.95
2024-01-11T05:58:10.764Z,23.96
2024-01-11T05:59:10.682Z,23.94
2024-01-11T06:00:10.665Z,23.94
2024-01-11T06:01:10.834Z,23.94
2024-01-11T06:02:10.660Z,23.92
2024-01-11T06:03:10.763Z,23.91
2024-01-11T06:04:10.676Z,23.89
2024-01-11T06:05:10.812Z,23.91
2024-01-11T06:06:10.714Z,23.91
2024-01-11T06:07:10.720Z,23.91
2024-01-11T06:08:10.749Z,23.91
2024-01-11T06:09:10.614Z,23.88
2024-01-11T06:10:10.625Z,23.86
2024-01-11T06:11:10.697Z,23.81
2024-01-11T06:12:10.537Z,23.76
2024-01-11T06:13:10.540Z,23.74
2024-01-11T06:14:10.554Z,23.74
2024-01-11T06:15:10.862Z,23.77
2024-01-11T06:16:13.275Z,23.74
2024-01-11T06:17:10.534Z,23.74
2024-01-11T06:18:10.668Z,23.76
2024-01-11T06:19:10.676Z,23.73
2024-01-11T06:20:10.546Z,23.71
2024-01-11T06:21:10.913Z,23.69
2024-01-11T06:22:10.497Z,23.64
2024-01-11T06:23:10.407Z,23.63
2024-01-11T06:24:10.409Z,23.59
2024-01-11T06:25:10.393Z,23.62
2024-01-11T06:26:10.451Z,23.62
2024-01-11T06:27:10.432Z,23.63
2024-01-11T06:28:10.345Z,23.63
2024-01-11T06:29:10.365Z,23.59
2024-01-11T06:30:10.480Z,23.56
2024-01-11T06:31:10.481Z,23.52
2024-01-11T06:32:10.397Z,23.52
2024-01-11T06:33:10.463Z,23.55
2024-01-11T06:34:10.320Z,23.56
2024-01-11T06:35:10.350Z,23.59
2024-01-11T06:36:10.324Z,23.63
2024-01-11T06:37:10.286Z,23.63
2024-01-11T06:38:10.452Z,23.66
2024-01-11T06:39:10.496Z,23.67
2024-01-11T06:40:10.306Z,23.67
2024-01-11T06:41:10.329Z,23.70
2024-01-11T06:42:10.210Z,23.69
2024-01-11T06:43:10.258Z,23.66
2024-01-11T06:44:10.348Z,23.64
2024-01-11T06:45:10.251Z,23.66
2024-01-11T06:46:10.263Z,23.63
2024-01-11T06:47:10.174Z,23.66
2024-01-11T06:48:10.336Z,23.67
2024-01-11T06:49:10.218Z,23.69
2024-01-11T06:50:10.236Z,23.70
2024-01-11T06:51:10.470Z,23.73
2024-01-11T06:52:10.278Z,23.74
2024-01-11T06:53:10.126Z,23.76
2024-01-11T06:54:10.200Z,23.77
2024-01-11T06:55:10.121Z,23.79
2024-01-11T06:56:10.155Z,23.79
2024-01-11T06:57:10.208Z,23.81
2024-01-11T06:58:10.224Z,23.81
2024-01-11T06:59:10.126Z,23.84
2024-01-11T07:00:10.035Z,23.84
2024-01-11T07:01:10.068Z,23.84
2024-01-11T07:02:10.149Z,23.85
2024-01-11T07:03:10.122Z,23.85
2024-01-11T07:04:10.084Z,23.84
2024-01-11T07:05:10.027Z,23.81
2024-01-11T07:06:10.076Z,23.81
2024-01-11T07:07:10.014Z,23.82
2024-01-11T07:08:10.060Z,23.82
2024-01-11T07:09:09.970Z,23.84
2024-01-11T07:10:10.046Z,23.82
2024-01-11T07:11:10.005Z,23.79
2024-01-11T07:12:09.913Z,23.73
2024-01-11T07:13:10.620Z,23.67
2024-01-11T07:14:09.942Z,23.58
2024-01-11T07:15:10.050Z,23.56
2024-01-11T07:16:11.228Z,23.56
2024-01-11T07:17:09.910Z,23.59
2024-01-11T07:18:09.970Z,23.63
2024-01-11T07:19:09.893Z,23.66
2024-01-11T07:20:09.901Z,23.67
2024-01-11T07:21:10.591Z,23.70
2024-01-11T07:22:09.759Z,23.71
2024-01-11T07:23:09.807Z,23.73
2024-01-11T07:24:09.739Z,23.74
2024-01-11T07:25:09.754Z,23.73
2024-01-11T07:26:09.764Z,23.73
2024-01-11T07:27:09.749Z,23.76
2024-01-11T07:28:09.839Z,23.76
2024-01-11T07:29:09.714Z,23.76
2024-01-11T07:30:09.825Z,23.79
2024-01-11T07:31:09.804Z,23.79
2024-01-11T07:32:09.792Z,23.82
2024-01-11T07:33:11.022Z,23.82
2024-01-11T07:34:09.777Z,23.84
2024-01-11T07:35:12.172Z,23.84
2024-01-11T07:36:09.897Z,23.85
2024-01-11T07:37:09.658Z,23.85
2024-01-11T07:38:09.638Z,23.84
2024-01-11T07:39:09.570Z,23.82
2024-01-11T07:40:09.645Z,23.84
2024-01-11T07:41:09.714Z,23.81
2024-01-11T07:42:09.853Z,23.81
2024-01-11T07:43:09.686Z,23.81
2024-01-11T07:44:09.644Z,23.81
2024-01-11T07:45:09.681Z,23.79
2024-01-11T07:46:10.359Z,23.82
2024-01-11T07:47:09.614Z,23.82
2024-01-11T07:48:09.630Z,23.84
2024-01-11T07:49:09.629Z,23.85
2024-01-11T07:50:09.564Z,23.86
2024-01-11T07:51:09.475Z,23.88
2024-01-11T07:52:10.130Z,23.88
2024-01-11T07:53:09.499Z,23.88
2024-01-11T07:54:09.945Z,23.85
2024-01-11T07:55:09.400Z,23.84
2024-01-11T07:56:09.522Z,23.84
2024-01-11T07:57:09.446Z,23.81
2024-01-11T07:58:09.426Z,23.81
2024-01-11T07:59:09.517Z,23.79
2024-01-11T08:00:09.409Z,23.74
2024-01-11T08:01:09.401Z,23.69
2024-01-11T08:02:09.445Z,23.64
2024-01-11T08:03:09.400Z,23.63
2024-01-11T08:04:09.478Z,23.62
2024-01-11T08:05:09.842Z,23.62
2024-01-11T08:06:09.401Z,23.64
2024-01-11T08:07:09.421Z,23.66
2024-01-11T08:08:09.361Z,23.67
2024-01-11T08:09:09.330Z,23.66
2024-01-11T08:10:09.463Z,23.70
2024-01-11T08:11:09.460Z,23.70
2024-01-11T08:12:09.401Z,23.67
2024-01-11T08:13:09.343Z,23.66
2024-01-11T08:14:09.508Z,23.64
2024-01-11T08:15:09.433Z,23.64
2024-01-11T08:16:09.337Z,23.67
2024-01-11T08:17:09.287Z,23.63
2024-01-11T08:18:09.284Z,23.59
2024-01-11T08:19:09.452Z,23.59
2024-01-11T08:20:09.515Z,23.59
2024-01-11T08:21:09.395Z,23.58
2024-01-11T08:22:09.272Z,23.62
2024-01-11T08:23:09.338Z,23.63
2024-01-11T08:24:09.216Z,23.66
2024-01-11T08:25:09.251Z,23.66
2024-01-11T08:26:09.373Z,23.69
2024-01-11T08:27:09.445Z,23.71
2024-01-11T08:28:09.248Z,23.73
2024-01-11T08:29:09.578Z,23.76
2024-01-11T08:30:09.184Z,23.74
2024-01-11T08:31:09.341Z,23.76
2024-01-11T08:32:19.518Z,23.76
2024-01-11T08:33:09.290Z,23.77
2024-01-11T08:34:09.368Z,23.81
2024-01-11T08:35:09.149Z,23.81
2024-01-11T08:36:09.187Z,23.82
2024-01-11T08:37:09.097Z,23.82
2024-01-11T08:38:09.000Z,23.84
2024-01-11T08:39:09.138Z,23.81
2024-01-11T08:40:09.034Z,23.81
2024-01-11T08:41:09.064Z,23.81
2024-01-11T08:42:09.024Z,23.81
2024-01-11T08:43:08.922Z,23.79
2024-01-11T08:44:09.024Z,23.81
2024-01-11T08:45:09.044Z,23.79
2024-01-11T08:46:08.983Z,23.76
2024-01-11T08:47:08.984Z,23.76
2024-01-11T08:48:09.079Z,23.74
2024-01-11T08:49:09.054Z,23.73
2024-01-11T08:50:09.027Z,23.73
2024-01-11T08:51:08.884Z,23.71
2024-01-11T08:52:08.900Z,23.71
2024-01-11T08:53:08.927Z,23.73
2024-01-11T08:54:09.119Z,23.74
2024-01-11T08:55:08.804Z,23.76
2024-01-11T08:56:08.962Z,23.74
2024-01-11T08:57:08.789Z,23.69
2024-01-11T08:58:08.839Z,23.59
2024-01-11T08:59:08.951Z,23.56
2024-01-11T09:00:08.947Z,23.55
2024-01-11T09:01:08.876Z,23.58
2024-01-11T09:02:15.276Z,23.55
2024-01-11T09:03:08.940Z,23.51
2024-01-11T09:04:08.900Z,23.49
2024-01-11T09:05:09.521Z,23.49
2024-01-11T09:06:09.066Z,23.47
2024-01-11T09:07:08.803Z,23.47
2024-01-11T09:08:08.819Z,23.48
2024-01-11T09:09:08.695Z,23.51
2024-01-11T09:10:09.135Z,23.54
2024-01-11T09:11:08.761Z,23.58
2024-01-11T09:12:08.714Z,23.62
2024-01-11T09:13:09.416Z,23.63
2024-01-11T09:14:08.821Z,23.67
2024-01-11T09:15:08.740Z,23.69
2024-01-11T09:16:09.056Z,23.73
2024-01-11T09:17:08.580Z,23.76
2024-01-11T09:18:08.885Z,23.79
2024-01-11T09:19:08.662Z,23.79
2024-01-11T09:20:08.728Z,23.81
2024-01-11T09:21:08.591Z,23.82
2024-01-11T09:22:08.619Z,23.81
2024-01-11T09:23:08.533Z,23.82
2024-01-11T09:24:08.515Z,23.81
2024-01-11T09:25:08.521Z,23.79
2024-01-11T09:26:08.545Z,23.81
2024-01-11T09:27:08.525Z,23.82
2024-01-11T09:28:08.935Z,23.81
2024-01-11T09:29:08.434Z,23.81
2024-01-11T09:30:08.456Z,23.77
2024-01-11T09:31:08.485Z,23.77
2024-01-11T09:32:08.485Z,23.76
2024-01-11T09:33:08.552Z,23.76
2024-01-11T09:34:08.425Z,23.73
2024-01-11T09:35:09.425Z,23.71
2024-01-11T09:36:08.364Z,23.71
2024-01-11T09:37:08.482Z,23.70
2024-01-11T09:38:08.544Z,23.66
2024-01-11T09:39:08.388Z,23.66
2024-01-11T09:40:08.403Z,23.69
2024-01-11T09:41:08.760Z,23.70
2024-01-11T09:42:08.324Z,23.73
2024-01-11T09:43:08.308Z,23.76
2024-01-11T09:44:08.365Z,23.79
2024-01-11T09:45:08.324Z,23.82
2024-01-11T09:46:08.249Z,23.85
2024-01-11T09:47:08.717Z,23.86
2024-01-11T09:48:08.447Z,23.85
2024-01-11T09:49:08.267Z,23.84
2024-01-11T09:50:08.340Z,23.84
2024-01-11T09:51:08.253Z,23.84
2024-01-11T09:52:08.177Z,23.85
2024-01-11T09:53:08.197Z,23.85
2024-01-11T09:54:08.167Z,23.84
2024-01-11T09:55:08.195Z,23.82
2024-01-11T09:56:08.176Z,23.84
2024-01-11T09:57:08.151Z,23.82
2024-01-11T09:58:08.214Z,23.84
2024-01-11T09:59:08.122Z,23.85
2024-01-11T10:00:08.126Z,23.86
2024-01-11T10:01:08.135Z,23.91
2024-01-11T10:02:08.095Z,23.91
2024-01-11T10:03:08.133Z,23.89
2024-01-11T10:04:08.129Z,23.89
2024-01-11T10:05:08.126Z,23.91
2024-01-11T10:06:08.090Z,23.91
2024-01-11T10:07:08.227Z,23.89
2024-01-11T10:08:08.115Z,23.91
2024-01-11T10:09:08.074Z,23.95
2024-01-11T10:10:08.063Z,23.92
2024-01-11T10:11:08.072Z,23.95
2024-01-11T10:12:07.992Z,24.00
2024-01-11T10:13:07.925Z,24.04
2024-01-11T10:14:08.014Z,24.07
2024-01-11T10:15:07.966Z,24.09
2024-01-11T10:16:07.915Z,24.10
2024-01-11T10:17:08.141Z,24.13
2024-01-11T10:18:08.174Z,24.14
2024-01-11T10:19:08.079Z,24.18
2024-01-11T10:20:08.116Z,24.22
2024-01-11T10:21:07.970Z,24.25
2024-01-11T10:22:07.907Z,24.28
2024-01-11T10:23:08.022Z,24.29
2024-01-11T10:24:07.864Z,24.32
2024-01-11T10:25:07.880Z,24.31
2024-01-11T10:26:08.003Z,24.32
2024-01-11T10:27:07.992Z,24.34
2024-01-11T10:28:07.820Z,24.34
2024-01-11T10:29:07.935Z,24.36
2024-01-11T10:30:07.874Z,24.38
2024-01-11T10:31:07.786Z,24.40
2024-01-11T10:32:07.967Z,24.37
2024-01-11T10:33:08.021Z,24.37
2024-01-11T10:34:07.836Z,24.38
2024-01-11T10:35:07.871Z,24.38
2024-01-11T10:36:07.763Z,24.40
2024-01-11T10:37:07.704Z,24.41
2024-01-11T10:38:07.853Z,24.41
2024-01-11T10:39:07.746Z,24.37
2024-01-11T10:40:07.763Z,24.31
2024-01-11T10:41:07.934Z,24.26
2024-01-11T10:42:08.139Z,24.28
2024-01-11T10:43:07.797Z,24.29
2024-01-11T10:44:07.683Z,24.26
2024-01-11T10:45:07.712Z,24.31
2024-01-11T10:46:07.592Z,24.37
2024-01-11T10:47:07.601Z,24.43
2024-01-11T10:48:07.826Z,24.46
2024-01-11T10:49:07.746Z,24.50
2024-01-11T10:50:07.654Z,24.53
2024-01-11T10:51:07.563Z,24.58
2024-01-11T10:52:07.634Z,24.63
2024-01-11T10:53:07.560Z,24.66
2024-01-11T10:54:07.577Z,24.68
2024-01-11T10:55:07.575Z,24.74
2024-01-11T10:56:07.509Z,24.78
2024-01-11T10:57:07.563Z,24.82
2024-01-11T10:58:07.539Z,24.84
2024-01-11T10:59:07.703Z,24.85
2024-01-11T11:00:07.466Z,24.89
2024-01-11T11:01:07.536Z,24.96
2024-01-11T11:02:07.785Z,25.03
2024-01-11T11:03:07.649Z,25.12
2024-01-11T11:04:07.504Z,25.22
2024-01-11T11:05:07.522Z,25.30
2024-01-11T11:06:07.581Z,25.37
2024-01-11T11:07:07.440Z,25.41
2024-01-11T11:08:07.651Z,25.46
2024-01-11T11:09:07.408Z,25.48
2024-01-11T11:10:07.336Z,25.48
2024-01-11T11:11:07.958Z,25.46
2024-01-11T11:12:07.432Z,25.46
2024-01-11T11:13:07.372Z,25.48
2024-01-11T11:14:07.328Z,25.48
2024-01-11T11:15:07.345Z,25.49
2024-01-11T11:16:07.253Z,25.55
2024-01-11T11:17:07.326Z,25.63
2024-01-11T11:18:07.360Z,25.67
2024-01-11T11:19:07.371Z,25.68
2024-01-11T11:20:08.231Z,25.67
2024-01-11T11:21:07.726Z,25.62
2024-01-11T11:22:07.261Z,25.56
2024-01-11T11:23:07.608Z,25.54
2024-01-11T11:24:07.372Z,25.54
2024-01-11T11:25:07.281Z,25.49
2024-01-11T11:26:07.342Z,25.33
2024-01-11T11:27:07.249Z,25.26
2024-01-11T11:28:07.169Z,25.25
2024-01-11T11:29:07.237Z,25.22
2024-01-11T11:30:07.214Z,25.21
2024-01-11T11:31:07.339Z,25.18
2024-01-11T11:32:07.203Z,25.18
2024-01-11T11:33:07.492Z,25.12
2024-01-11T11:34:07.338Z,25.06
2024-01-11T11:35:07.148Z,25.07
2024-01-11T11:36:07.142Z,25.12
2024-01-11T11:37:07.154Z,25.16
2024-01-11T11:38:07.181Z,25.18
2024-01-11T11:39:07.171Z,25.19
2024-01-11T11:40:07.145Z,25.19
2024-01-11T11:41:07.436Z,25.25
2024-01-11T11:42:07.055Z,25.29
2024-01-11T11:43:07.256Z,25.29
2024-01-11T11:44:07.755Z,25.29
2024-01-11T11:45:07.080Z,25.36
2024-01-11T11:46:07.082Z,25.30
2024-01-11T11:47:07.184Z,25.26
2024-01-11T11:48:08.067Z,25.25
2024-01-11T11:49:07.007Z,25.29
2024-01-11T11:50:08.168Z,25.31
2024-01-11T11:51:07.040Z,25.37
2024-01-11T11:52:06.950Z,25.41
2024-01-11T11:53:07.067Z,25.52
2024-01-11T11:54:07.021Z,25.58
2024-01-11T11:55:06.923Z,25.67
2024-01-11T11:56:07.045Z,25.76
2024-01-11T11:57:06.977Z,25.81
2024-01-11T11:58:06.851Z,25.83
2024-01-11T11:59:06.999Z,25.86
2024-01-11T12:00:06.860Z,25.91
2024-01-11T12:01:06.965Z,25.92
2024-01-11T12:02:06.939Z,25.92
2024-01-11T12:03:06.979Z,25.95
2024-01-11T12:04:06.778Z,25.96
2024-01-11T12:05:07.176Z,26.06
2024-01-11T12:06:06.979Z,26.06
2024-01-11T12:07:06.893Z,26.07
2024-01-11T12:08:06.829Z,26.10
2024-01-11T12:09:06.743Z,26.08
2024-01-11T12:10:06.736Z,26.13
2024-01-11T12:11:07.068Z,26.15
2024-01-11T12:12:11.780Z,26.22
2024-01-11T12:13:06.745Z,26.27
2024-01-11T12:14:07.208Z,26.27
2024-01-11T12:15:06.646Z,26.31
2024-01-11T12:16:06.726Z,26.39
2024-01-11T12:17:07.297Z,26.46
2024-01-11T12:18:06.801Z,26.52
2024-01-11T12:19:06.747Z,26.60
2024-01-11T12:20:06.683Z,26.67
2024-01-11T12:21:06.577Z,26.74
2024-01-11T12:22:06.580Z,26.76
2024-01-11T12:23:06.724Z,26.86
2024-01-11T12:24:06.609Z,26.96
2024-01-11T12:25:06.732Z,27.01
2024-01-11T12:26:06.788Z,27.07
2024-01-11T12:27:06.594Z,27.15
2024-01-11T12:28:06.623Z,27.19
2024-01-11T12:29:06.744Z,27.26
2024-01-11T12:30:06.752Z,27.33
2024-01-11T12:31:06.649Z,27.40
2024-01-11T12:32:06.495Z,27.45
2024-01-11T12:33:06.873Z,27.50
2024-01-11T12:34:06.628Z,27.50
2024-01-11T12:35:06.723Z,27.55
2024-01-11T12:36:06.560Z,27.61
2024-01-11T12:37:06.891Z,27.61
2024-01-11T12:38:06.633Z,27.61
2024-01-11T12:39:06.578Z,27.64
2024-01-11T12:40:06.399Z,27.63
2024-01-11T12:41:06.654Z,27.52
2024-01-11T12:42:06.414Z,27.52
2024-01-11T12:43:06.353Z,27.55
2024-01-11T12:44:06.470Z,27.63
2024-01-11T12:45:06.371Z,27.72
2024-01-11T12:46:06.373Z,27.72
2024-01-11T12:47:06.647Z,27.63
2024-01-11T12:48:06.592Z,27.52
2024-01-11T12:49:06.347Z,27.57
2024-01-11T12:50:06.329Z,27.60
2024-01-11T12:51:14.340Z,27.66
2024-01-11T12:52:06.282Z,27.73
2024-01-11T12:53:06.516Z,27.79